Time;durP1;ratioP1;P1;durP2;ratioP2;P2;SDS_P1;SDS_P2;PMS_P1;PMS_P2;Temp;Humidity;BMP_temperature;BMP_pressure;BME280_temperature;BME280_humidity;BME280_pressure;Samples;Min_cycle;Max_cycle;Signal;HPM_P1;HPM_P2
2022/11/18 00:01:05;0.00;0.00;0.62;0.00;0.00;0.62;2.23;1.00;;;23.40;26.60;;;;;;2260241;61;20412;-70
2022/11/18 00:03:51;0.00;0.00;0.62;0.00;0.00;0.62;5.00;0.90;;;23.40;26.60;;;;;;2259624;61;20356;-70
2022/11/18 00:06:36;0.00;0.00;0.62;0.00;0.00;0.62;1.90;1.10;;;23.40;26.60;;;;;;2260320;61;20357;-69
2022/11/18 00:09:21;0.00;0.00;0.62;0.00;0.00;0.62;2.03;1.00;;;23.40;26.60;;;;;;2259999;61;20920;-70
2022/11/18 00:15:10;0.00;0.00;0.62;0.00;0.00;0.62;2.00;1.20;;;23.40;26.60;;;;;;2260165;61;20407;-69
2022/11/18 00:17:55;0.00;0.00;0.62;0.00;0.00;0.62;3.17;1.23;;;23.40;26.60;;;;;;2260074;61;20783;-70
2022/11/18 00:20:40;0.00;0.00;0.62;0.00;0.00;0.62;2.00;0.90;;;23.40;26.60;;;;;;2260142;61;20888;-70
2022/11/18 00:23:24;0.00;0.00;0.62;0.00;0.00;0.62;2.30;1.20;;;23.40;26.60;;;;;;2260058;61;20344;-68
2022/11/18 00:26:12;0.00;0.00;0.62;0.00;0.00;0.62;1.73;1.20;;;23.30;26.50;;;;;;2259508;61;20435;-71
2022/11/18 00:28:57;0.00;0.00;0.62;0.00;0.00;0.62;1.60;1.10;;;23.30;26.50;;;;;;2260339;61;20412;-70
2022/11/18 00:31:44;0.00;0.00;0.62;0.00;0.00;0.62;1.57;0.97;;;23.30;26.60;;;;;;2259419;61;20526;-67
2022/11/18 00:34:28;0.00;0.00;0.62;0.00;0.00;0.62;2.07;1.13;;;23.30;26.60;;;;;;2259913;61;20372;-70
2022/11/18 00:37:14;0.00;0.00;0.62;0.00;0.00;0.62;2.27;1.40;;;23.30;26.60;;;;;;2260048;61;20416;-69
2022/11/18 00:39:59;0.00;0.00;0.62;0.00;0.00;0.62;1.80;1.30;;;23.40;26.70;;;;;;2259868;61;20832;-68
2022/11/18 00:42:52;0.00;0.00;0.62;0.00;0.00;0.62;1.60;1.00;;;23.40;26.60;;;;;;2259925;61;20821;-69
2022/11/18 00:45:37;0.00;0.00;0.62;0.00;0.00;0.62;1.57;0.93;;;23.40;26.60;;;;;;2259991;61;20405;-68
2022/11/18 00:48:23;0.00;0.00;0.62;0.00;0.00;0.62;2.73;1.40;;;23.40;26.50;;;;;;2259584;61;20465;-66
2022/11/18 00:51:12;0.00;0.00;0.62;0.00;0.00;0.62;2.33;1.53;;;23.30;26.40;;;;;;2260634;61;20419;-67
2022/11/18 00:53:57;0.00;0.00;0.62;0.00;0.00;0.62;2.50;2.07;;;23.30;26.30;;;;;;2259935;61;20412;-68
2022/11/18 00:56:42;0.00;0.00;0.62;0.00;0.00;0.62;3.87;2.27;;;23.30;26.30;;;;;;2259907;61;20364;-66
2022/11/18 00:59:26;0.00;0.00;0.62;0.00;0.00;0.62;2.47;2.10;;;23.30;26.20;;;;;;2260045;61;20959;-68
2022/11/18 01:02:11;0.00;0.00;0.62;0.00;0.00;0.62;3.37;2.33;;;23.30;26.20;;;;;;2260165;61;20384;-67
2022/11/18 01:04:57;0.00;0.00;0.62;0.00;0.00;0.62;2.67;2.17;;;23.30;26.20;;;;;;2259897;61;20908;-65
2022/11/18 01:07:41;0.00;0.00;0.62;0.00;0.00;0.62;2.70;2.10;;;23.30;26.60;;;;;;2259939;61;20377;-67
2022/11/18 01:10:26;0.00;0.00;0.62;0.00;0.00;0.62;4.13;2.37;;;23.30;26.10;;;;;;2259716;61;20443;-67
2022/11/18 01:13:20;0.00;0.00;0.62;0.00;0.00;0.62;3.03;2.43;;;23.20;26.00;;;;;;2260299;61;20760;-68
2022/11/18 01:16:05;0.00;0.00;0.62;0.00;0.00;0.62;3.43;2.90;;;23.20;26.00;;;;;;2260027;61;20409;-67
2022/11/18 01:18:51;0.00;0.00;0.62;0.00;0.00;0.62;3.37;2.43;;;23.20;26.00;;;;;;2259902;61;20384;-68
2022/11/18 01:21:37;0.00;0.00;0.62;0.00;0.00;0.62;4.13;2.90;;;23.20;26.00;;;;;;2259421;61;20360;-67
2022/11/18 01:24:22;0.00;0.00;0.62;0.00;0.00;0.62;3.53;2.60;;;23.10;25.90;;;;;;2260162;61;20381;-67
2022/11/18 01:27:10;0.00;0.00;0.62;0.00;0.00;0.62;3.50;2.63;;;23.10;25.90;;;;;;2259955;61;20880;-66
2022/11/18 01:29:54;0.00;0.00;0.62;0.00;0.00;0.62;3.40;2.93;;;23.10;25.80;;;;;;2259716;61;20527;-66
2022/11/18 01:32:39;0.00;0.00;0.62;0.00;0.00;0.62;3.33;2.33;;;23.10;25.90;;;;;;2260123;61;20448;-67
2022/11/18 01:35:24;0.00;0.00;0.62;0.00;0.00;0.62;3.43;2.80;;;23.00;25.80;;;;;;2260350;61;20408;-66
2022/11/18 01:38:12;0.00;0.00;0.62;0.00;0.00;0.62;4.77;3.20;;;23.00;25.80;;;;;;2259836;61;20427;-67
2022/11/18 01:40:58;0.00;0.00;0.62;0.00;0.00;0.62;3.37;2.80;;;23.00;25.80;;;;;;2260078;61;20415;-65
2022/11/18 01:43:53;0.00;0.00;0.62;0.00;0.00;0.62;5.07;2.97;;;23.00;25.80;;;;;;2259733;61;20797;-68
2022/11/18 01:46:37;0.00;0.00;0.62;0.00;0.00;0.62;3.37;2.43;;;23.00;25.80;;;;;;2259876;61;20442;-67
2022/11/18 01:49:22;0.00;0.00;0.62;0.00;0.00;0.62;2.63;2.10;;;23.00;25.80;;;;;;2259714;61;20791;-67
2022/11/18 01:52:08;0.00;0.00;0.62;0.00;0.00;0.62;4.00;2.63;;;22.90;25.70;;;;;;2259889;61;20365;-68
2022/11/18 01:54:58;0.00;0.00;0.62;0.00;0.00;0.62;2.50;1.83;;;22.90;25.70;;;;;;2259816;61;20372;-67
2022/11/18 01:57:45;0.00;0.00;0.62;0.00;0.00;0.62;2.47;2.13;;;22.90;25.70;;;;;;2260051;61;20365;-68
2022/11/18 02:00:31;0.00;0.00;0.62;0.00;0.00;0.62;3.30;2.40;;;22.90;25.80;;;;;;2259891;61;20357;-67
2022/11/18 02:03:16;0.00;0.00;0.62;0.00;0.00;0.62;3.73;2.50;;;22.90;25.70;;;;;;2259771;61;20868;-67
2022/11/18 02:06:03;0.00;0.00;0.62;0.00;0.00;0.62;3.50;2.60;;;22.80;25.70;;;;;;2259902;61;20369;-68
2022/11/18 02:08:49;0.00;0.00;0.62;0.00;0.00;0.62;2.57;2.13;;;22.80;25.70;;;;;;2259905;61;20935;-68
2022/11/18 02:11:52;0.00;0.00;0.62;0.00;0.00;0.62;3.20;2.40;;;22.80;25.70;;;;;;2259811;61;20347;-68
2022/11/18 02:14:40;0.00;0.00;0.62;0.00;0.00;0.62;2.77;2.10;;;22.80;25.70;;;;;;2259929;61;20365;-68
2022/11/18 02:17:38;0.00;0.00;0.62;0.00;0.00;0.62;3.17;2.30;;;22.70;25.60;;;;;;2260432;61;21048;-68
2022/11/18 02:20:43;0.00;0.00;0.62;0.00;0.00;0.62;3.20;2.53;;;22.70;25.70;;;;;;2260612;61;20400;-69
2022/11/18 02:24:24;0.00;0.00;0.62;0.00;0.00;0.62;5.40;2.33;;;22.70;26.20;;;;;;2260692;61;20359;-66
2022/11/18 02:27:51;0.00;0.00;0.62;0.00;0.00;0.62;3.40;2.53;;;22.60;25.60;;;;;;2260925;61;20412;-67
2022/11/18 02:30:45;0.00;0.00;0.62;0.00;0.00;0.62;3.00;2.53;;;22.60;25.60;;;;;;2260442;61;20380;-68
2022/11/18 02:33:40;0.00;0.00;0.62;0.00;0.00;0.62;3.27;2.53;;;22.60;25.60;;;;;;2260547;61;20921;-67
2022/11/18 02:36:35;0.00;0.00;0.62;0.00;0.00;0.62;2.40;1.80;;;22.60;26.00;;;;;;2260455;61;20419;-68
2022/11/18 02:39:29;0.00;0.00;0.62;0.00;0.00;0.62;3.40;2.50;;;22.50;25.60;;;;;;2260352;61;20381;-68
2022/11/18 02:42:15;0.00;0.00;0.62;0.00;0.00;0.62;2.40;2.00;;;22.50;25.60;;;;;;2260659;61;20448;-68
2022/11/18 02:45:05;0.00;0.00;0.62;0.00;0.00;0.62;2.60;2.20;;;22.50;25.60;;;;;;2260606;61;20364;-67
2022/11/18 02:47:52;0.00;0.00;0.62;0.00;0.00;0.62;3.53;2.30;;;22.50;25.60;;;;;;2260364;61;20896;-66
2022/11/18 02:50:40;0.00;0.00;0.62;0.00;0.00;0.62;4.80;2.63;;;22.50;25.60;;;;;;2260396;61;20819;-67
2022/11/18 02:53:28;0.00;0.00;0.62;0.00;0.00;0.62;4.03;2.47;;;22.50;25.60;;;;;;2260329;61;20340;-66
2022/11/18 02:56:15;0.00;0.00;0.62;0.00;0.00;0.62;3.63;2.33;;;22.40;25.50;;;;;;2260572;61;20504;-68
2022/11/18 02:59:01;0.00;0.00;0.62;0.00;0.00;0.62;2.50;1.97;;;22.40;25.50;;;;;;2260813;61;20380;-67
2022/11/18 03:01:46;0.00;0.00;0.62;0.00;0.00;0.62;3.00;2.30;;;22.40;25.60;;;;;;2260428;61;20396;-67
2022/11/18 03:04:34;0.00;0.00;0.62;0.00;0.00;0.62;2.77;1.83;;;22.40;25.60;;;;;;2260442;61;20387;-67
2022/11/18 03:07:27;0.00;0.00;0.62;0.00;0.00;0.62;2.57;2.10;;;22.40;25.60;;;;;;2260390;61;20403;-67
2022/11/18 03:10:12;0.00;0.00;0.62;0.00;0.00;0.62;2.40;1.90;;;22.40;25.60;;;;;;2260289;61;20370;-68
2022/11/18 03:13:13;0.00;0.00;0.62;0.00;0.00;0.62;3.10;2.40;;;22.40;25.60;;;;;;2260380;61;20368;-66
2022/11/18 03:16:04;0.00;0.00;0.62;0.00;0.00;0.62;3.37;2.70;;;22.30;25.50;;;;;;2260449;61;20832;-66
2022/11/18 03:18:59;0.00;0.00;0.62;0.00;0.00;0.62;3.17;2.20;;;22.30;25.50;;;;;;2260638;61;20459;-66
2022/11/18 03:21:59;0.00;0.00;0.62;0.00;0.00;0.62;3.27;2.40;;;22.30;25.50;;;;;;2260281;61;20557;-68
2022/11/18 03:24:54;0.00;0.00;0.62;0.00;0.00;0.62;2.47;2.20;;;22.30;25.50;;;;;;2260449;61;20419;-66
2022/11/18 03:27:45;0.00;0.00;0.62;0.00;0.00;0.62;2.60;1.87;;;22.20;26.00;;;;;;2260100;61;20449;-67
2022/11/18 03:30:35;0.00;0.00;0.62;0.00;0.00;0.62;1.97;1.63;;;22.20;25.50;;;;;;2260322;61;20393;-68
2022/11/18 03:33:23;0.00;0.00;0.62;0.00;0.00;0.62;3.00;2.10;;;22.20;26.00;;;;;;2260172;61;20400;-68
2022/11/18 03:36:11;0.00;0.00;0.62;0.00;0.00;0.62;2.53;2.33;;;22.20;25.50;;;;;;2260133;61;21004;-66
2022/11/18 03:39:02;0.00;0.00;0.62;0.00;0.00;0.62;2.80;2.50;;;22.20;25.50;;;;;;2260366;61;20400;-67
2022/11/18 03:41:53;0.00;0.00;0.62;0.00;0.00;0.62;3.10;2.13;;;22.20;25.50;;;;;;2260173;61;20395;-67
2022/11/18 03:44:42;0.00;0.00;0.62;0.00;0.00;0.62;3.13;2.63;;;22.20;25.50;;;;;;2260261;61;20365;-68
2022/11/18 03:47:33;0.00;0.00;0.62;0.00;0.00;0.62;2.67;2.27;;;22.20;25.50;;;;;;2260045;61;20485;-67
2022/11/18 03:50:25;0.00;0.00;0.62;0.00;0.00;0.62;3.50;2.50;;;22.10;25.40;;;;;;2260136;61;20435;-67
2022/11/18 03:53:11;0.00;0.00;0.62;0.00;0.00;0.62;2.43;2.00;;;22.10;25.50;;;;;;2260343;61;20944;-67
2022/11/18 03:56:05;0.00;0.00;0.62;0.00;0.00;0.62;3.10;2.30;;;22.10;25.50;;;;;;2260401;61;20869;-66
2022/11/18 03:58:55;0.00;0.00;0.62;0.00;0.00;0.62;2.40;2.03;;;22.10;25.50;;;;;;2260278;61;20504;-67
2022/11/18 04:01:46;0.00;0.00;0.62;0.00;0.00;0.62;3.80;2.70;;;22.10;25.50;;;;;;2260115;61;20415;-68
2022/11/18 04:04:31;0.00;0.00;0.62;0.00;0.00;0.62;2.70;2.40;;;22.10;25.50;;;;;;2260225;61;20369;-68
2022/11/18 04:07:22;0.00;0.00;0.62;0.00;0.00;0.62;3.03;2.47;;;22.00;25.40;;;;;;2260437;61;20353;-68
2022/11/18 04:10:15;0.00;0.00;0.62;0.00;0.00;0.62;3.00;2.70;;;22.10;25.50;;;;;;2260108;61;20916;-67
2022/11/18 04:13:06;0.00;0.00;0.62;0.00;0.00;0.62;3.03;2.33;;;22.00;25.40;;;;;;2260197;61;20411;-66
2022/11/18 04:15:53;0.00;0.00;0.62;0.00;0.00;0.62;2.30;2.00;;;22.00;25.50;;;;;;2260097;61;20397;-67
2022/11/18 04:18:37;0.00;0.00;0.62;0.00;0.00;0.62;3.10;2.60;;;22.00;25.40;;;;;;2259533;61;20932;-67
2022/11/18 04:21:22;0.00;0.00;0.62;0.00;0.00;0.62;2.90;2.60;;;22.00;25.40;;;;;;2260386;61;20435;-66
2022/11/18 04:24:07;0.00;0.00;0.62;0.00;0.00;0.62;3.07;2.73;;;21.90;25.40;;;;;;2260219;61;20411;-67
2022/11/18 04:26:52;0.00;0.00;0.62;0.00;0.00;0.62;3.07;2.20;;;21.90;25.40;;;;;;2260186;61;20361;-67
2022/11/18 04:29:38;0.00;0.00;0.62;0.00;0.00;0.62;4.03;2.83;;;21.90;25.90;;;;;;2260147;61;20447;-67
2022/11/18 04:32:22;0.00;0.00;0.62;0.00;0.00;0.62;3.30;2.70;;;21.90;25.40;;;;;;2260160;61;20373;-68
2022/11/18 04:35:08;0.00;0.00;0.62;0.00;0.00;0.62;3.73;3.03;;;21.90;25.40;;;;;;2260194;61;20357;-66
2022/11/18 04:37:53;0.00;0.00;0.62;0.00;0.00;0.62;3.40;2.90;;;21.90;25.40;;;;;;2259772;61;20364;-67
2022/11/18 04:40:37;0.00;0.00;0.62;0.00;0.00;0.62;4.17;2.83;;;21.90;25.40;;;;;;2259978;61;20377;-68
2022/11/18 04:43:22;0.00;0.00;0.62;0.00;0.00;0.62;3.30;2.80;;;21.80;25.30;;;;;;2260283;61;20345;-66
2022/11/18 04:46:08;0.00;0.00;0.62;0.00;0.00;0.62;4.33;3.30;;;21.80;25.30;;;;;;2259902;61;20871;-67
2022/11/18 04:48:52;0.00;0.00;0.62;0.00;0.00;0.62;4.37;3.40;;;21.80;25.40;;;;;;2260105;61;20792;-68
2022/11/18 04:51:37;0.00;0.00;0.62;0.00;0.00;0.62;3.50;3.17;;;21.80;25.40;;;;;;2260057;61;20376;-67
2022/11/18 04:54:24;0.00;0.00;0.62;0.00;0.00;0.62;4.13;3.10;;;21.80;25.40;;;;;;2260009;61;20368;-68
2022/11/18 04:57:09;0.00;0.00;0.62;0.00;0.00;0.62;4.30;3.20;;;21.80;25.40;;;;;;2260054;61;20356;-67
2022/11/18 04:59:54;0.00;0.00;0.62;0.00;0.00;0.62;4.50;3.40;;;21.80;25.40;;;;;;2260287;61;20469;-66
2022/11/18 05:02:40;0.00;0.00;0.62;0.00;0.00;0.62;3.33;2.63;;;21.80;25.40;;;;;;2260337;61;20380;-66
2022/11/18 05:05:24;0.00;0.00;0.62;0.00;0.00;0.62;2.93;2.50;;;21.70;25.30;;;;;;2259962;61;20376;-66
2022/11/18 05:08:09;0.00;0.00;0.62;0.00;0.00;0.62;3.80;3.40;;;21.70;25.40;;;;;;2259824;61;20396;-66
2022/11/18 05:12:47;0.00;0.00;0.62;0.00;0.00;0.62;4.20;3.80;;;21.70;25.30;;;;;;2259891;61;20402;-66
2022/11/18 05:13:58;0.00;0.00;0.62;0.00;0.00;0.62;4.30;3.70;;;21.70;25.40;;;;;;2259827;61;20376;-66
2022/11/18 05:16:43;0.00;0.00;0.62;0.00;0.00;0.62;4.23;3.77;;;21.70;25.40;;;;;;2260063;61;20365;-67
2022/11/18 05:19:29;0.00;0.00;0.62;0.00;0.00;0.62;4.10;3.40;;;21.70;25.40;;;;;;2259968;61;20377;-67
2022/11/18 05:22:14;0.00;0.00;0.62;0.00;0.00;0.62;4.67;3.97;;;21.70;25.40;;;;;;2260103;61;20369;-65
2022/11/18 05:24:59;0.00;0.00;0.62;0.00;0.00;0.62;4.00;3.17;;;21.60;25.30;;;;;;2260247;61;20407;-66
2022/11/18 05:27:44;0.00;0.00;0.62;0.00;0.00;0.62;4.10;3.70;;;21.60;25.30;;;;;;2259965;61;20356;-68
2022/11/18 05:30:28;0.00;0.00;0.62;0.00;0.00;0.62;4.40;3.50;;;21.60;25.30;;;;;;2259787;61;20447;-66
2022/11/18 05:33:13;0.00;0.00;0.62;0.00;0.00;0.62;4.00;3.47;;;21.60;25.30;;;;;;2259855;61;20373;-66
2022/11/18 05:36:03;0.00;0.00;0.62;0.00;0.00;0.62;4.67;3.80;;;21.60;25.40;;;;;;2259829;61;20419;-70
2022/11/18 05:38:48;0.00;0.00;0.62;0.00;0.00;0.62;4.03;3.50;;;21.60;25.40;;;;;;2259691;61;20392;-69
2022/11/18 05:44:37;0.00;0.00;0.62;0.00;0.00;0.62;4.97;4.03;;;21.50;25.30;;;;;;2260064;61;20377;-70
2022/11/18 05:47:23;0.00;0.00;0.62;0.00;0.00;0.62;6.03;3.93;;;21.50;25.30;;;;;;2259599;61;20881;-73
2022/11/18 05:50:08;0.00;0.00;0.62;0.00;0.00;0.62;4.80;3.73;;;21.50;25.30;;;;;;2260038;61;20427;-69
2022/11/18 05:52:54;0.00;0.00;0.62;0.00;0.00;0.62;4.60;3.80;;;21.50;25.40;;;;;;2260274;61;20396;-70
2022/11/18 05:55:46;0.00;0.00;0.62;0.00;0.00;0.62;4.10;3.70;;;21.50;25.40;;;;;;2260440;61;20385;-71
2022/11/18 05:58:31;0.00;0.00;0.62;0.00;0.00;0.62;5.10;3.57;;;21.50;25.50;;;;;;2260219;61;20431;-73
2022/11/18 06:01:20;0.00;0.00;0.62;0.00;0.00;0.62;4.30;3.90;;;21.50;25.50;;;;;;2260664;61;20368;-70
2022/11/18 06:04:13;0.00;0.00;0.62;0.00;0.00;0.62;5.20;3.97;;;21.50;25.50;;;;;;2260478;61;20900;-73
2022/11/18 06:07:04;0.00;0.00;0.62;0.00;0.00;0.62;4.30;3.90;;;21.50;25.50;;;;;;2260317;61;20391;-71
2022/11/18 06:09:55;0.00;0.00;0.62;0.00;0.00;0.62;4.50;3.47;;;21.50;25.50;;;;;;2260335;61;20384;-66
2022/11/18 06:12:44;0.00;0.00;0.62;0.00;0.00;0.62;5.23;4.30;;;21.50;25.50;;;;;;2260540;61;20888;-69
2022/11/18 06:15:32;0.00;0.00;0.62;0.00;0.00;0.62;6.30;4.80;;;21.40;26.00;;;;;;2260367;61;20417;-66
2022/11/18 06:18:22;0.00;0.00;0.62;0.00;0.00;0.62;5.20;4.43;;;21.50;25.50;;;;;;2260249;61;20388;-69
2022/11/18 06:21:06;0.00;0.00;0.62;0.00;0.00;0.62;6.17;4.83;;;21.50;25.50;;;;;;2260524;61;20376;-68
2022/11/18 06:23:51;0.00;0.00;0.62;0.00;0.00;0.62;6.53;5.13;;;21.40;25.40;;;;;;2260661;61;20718;-65
2022/11/18 06:26:37;0.00;0.00;0.62;0.00;0.00;0.62;6.20;4.83;;;21.50;25.50;;;;;;2260032;61;20455;-67
2022/11/18 06:29:22;0.00;0.00;0.62;0.00;0.00;0.62;5.90;5.00;;;21.40;25.40;;;;;;2260267;61;20428;-67
2022/11/18 06:32:07;0.00;0.00;0.62;0.00;0.00;0.62;6.40;4.63;;;21.40;25.40;;;;;;2260188;61;20415;-68
2022/11/18 06:34:51;0.00;0.00;0.62;0.00;0.00;0.62;6.93;5.33;;;21.40;25.40;;;;;;2260431;61;20487;-67
2022/11/18 06:37:36;0.00;0.00;0.62;0.00;0.00;0.62;5.73;5.10;;;21.40;25.30;;;;;;2260252;61;20361;-67
2022/11/18 06:40:20;0.00;0.00;0.62;0.00;0.00;0.62;7.00;5.30;;;21.40;25.30;;;;;;2260304;61;20397;-69
2022/11/18 06:49:17;0.00;0.00;0.62;0.00;0.00;0.62;7.00;4.87;;;21.40;25.50;;;;;;2259957;61;20918;-67
2022/11/18 06:52:02;0.00;0.00;0.62;0.00;0.00;0.62;6.60;4.80;;;21.40;25.60;;;;;;2260085;61;21054;-69
2022/11/18 06:54:47;0.00;0.00;0.62;0.00;0.00;0.62;6.17;4.70;;;21.40;25.80;;;;;;2260179;61;20431;-69
2022/11/18 06:57:32;0.00;0.00;0.62;0.00;0.00;0.62;8.07;4.93;;;21.40;25.80;;;;;;2260236;61;20415;-69
2022/11/18 07:00:19;0.00;0.00;0.62;0.00;0.00;0.62;5.70;4.40;;;21.40;25.80;;;;;;2260192;61;20400;-70
2022/11/18 07:03:04;0.00;0.00;0.62;0.00;0.00;0.62;6.00;4.37;;;21.50;25.90;;;;;;2260303;61;20423;-69
2022/11/18 07:05:48;0.00;0.00;0.62;0.00;0.00;0.62;6.57;4.97;;;21.40;25.90;;;;;;2259857;61;20460;-67
2022/11/18 07:08:35;0.00;0.00;0.62;0.00;0.00;0.62;6.00;4.53;;;21.50;26.00;;;;;;2260250;61;20400;-69
2022/11/18 07:11:22;0.00;0.00;0.62;0.00;0.00;0.62;4.40;3.47;;;21.50;25.90;;;;;;2260275;61;20404;-67
2022/11/18 07:14:07;0.00;0.00;0.62;0.00;0.00;0.62;5.50;4.90;;;21.50;25.90;;;;;;2260017;61;20360;-69
2022/11/18 07:16:53;0.00;0.00;0.62;0.00;0.00;0.62;5.43;4.50;;;21.50;25.90;;;;;;2260140;61;20361;-70
2022/11/18 07:19:38;0.00;0.00;0.62;0.00;0.00;0.62;5.27;4.53;;;21.50;26.40;;;;;;2260179;61;20385;-69
2022/11/18 07:22:23;0.00;0.00;0.62;0.00;0.00;0.62;4.90;4.20;;;21.50;25.90;;;;;;2260257;61;20400;-69
2022/11/18 07:25:09;0.00;0.00;0.62;0.00;0.00;0.62;5.97;4.47;;;21.50;25.90;;;;;;2260350;61;20729;-70
2022/11/18 07:27:53;0.00;0.00;0.62;0.00;0.00;0.62;5.70;4.30;;;21.50;25.90;;;;;;2259976;61;20770;-70
2022/11/18 07:30:38;0.00;0.00;0.62;0.00;0.00;0.62;5.43;4.67;;;21.50;25.80;;;;;;2260662;61;20900;-70
2022/11/18 07:33:24;0.00;0.00;0.62;0.00;0.00;0.62;6.17;4.10;;;21.50;25.80;;;;;;2260103;61;20932;-69
2022/11/18 07:36:12;0.00;0.00;0.62;0.00;0.00;0.62;5.17;4.00;;;21.50;25.80;;;;;;2260158;61;20419;-68
2022/11/18 07:38:58;0.00;0.00;0.62;0.00;0.00;0.62;5.17;4.63;;;21.50;25.80;;;;;;2260122;61;20924;-68
2022/11/18 07:41:43;0.00;0.00;0.62;0.00;0.00;0.62;5.20;4.23;;;21.50;25.80;;;;;;2260165;61;20361;-70
2022/11/18 07:44:27;0.00;0.00;0.62;0.00;0.00;0.62;5.80;4.53;;;21.50;25.70;;;;;;2260162;61;20411;-67
2022/11/18 07:47:12;0.00;0.00;0.62;0.00;0.00;0.62;5.17;4.20;;;21.60;25.80;;;;;;2259960;61;20369;-68
2022/11/18 07:49:58;0.00;0.00;0.62;0.00;0.00;0.62;6.80;5.33;;;21.50;25.70;;;;;;2260114;61;20428;-67
2022/11/18 07:52:42;0.00;0.00;0.62;0.00;0.00;0.62;6.10;4.43;;;21.60;25.80;;;;;;2260588;61;20908;-66
2022/11/18 07:55:27;0.00;0.00;0.62;0.00;0.00;0.62;4.40;3.83;;;21.50;25.70;;;;;;2259869;61;20361;-69
2022/11/18 07:58:12;0.00;0.00;0.62;0.00;0.00;0.62;4.87;4.10;;;21.50;25.70;;;;;;2259930;61;20403;-68
2022/11/18 08:00:57;0.00;0.00;0.62;0.00;0.00;0.62;5.40;4.90;;;21.60;25.70;;;;;;2260088;61;20854;-67
2022/11/18 08:03:42;0.00;0.00;0.62;0.00;0.00;0.62;5.43;3.93;;;21.60;25.70;;;;;;2259998;61;20365;-68
2022/11/18 08:06:31;0.00;0.00;0.62;0.00;0.00;0.62;4.87;4.27;;;21.60;25.70;;;;;;2260125;61;20361;-68
2022/11/18 08:09:16;0.00;0.00;0.62;0.00;0.00;0.62;4.67;3.70;;;21.60;25.70;;;;;;2259922;61;20401;-68
2022/11/18 08:12:00;0.00;0.00;0.62;0.00;0.00;0.62;5.17;4.57;;;21.60;25.60;;;;;;2259926;61;20369;-68
2022/11/18 08:14:45;0.00;0.00;0.62;0.00;0.00;0.62;4.60;4.00;;;21.60;25.60;;;;;;2260205;61;20424;-68
2022/11/18 08:17:31;0.00;0.00;0.62;0.00;0.00;0.62;5.07;4.33;;;21.60;25.60;;;;;;2259553;61;20364;-68
2022/11/18 08:20:16;0.00;0.00;0.62;0.00;0.00;0.62;4.90;4.20;;;21.60;25.60;;;;;;2260146;61;20361;-67
2022/11/18 08:23:02;0.00;0.00;0.62;0.00;0.00;0.62;5.77;4.47;;;21.60;25.50;;;;;;2259969;61;20350;-70
2022/11/18 08:25:47;0.00;0.00;0.62;0.00;0.00;0.62;4.53;4.07;;;21.60;25.50;;;;;;2260107;61;20847;-68
2022/11/18 08:28:32;0.00;0.00;0.62;0.00;0.00;0.62;5.40;4.60;;;21.60;25.50;;;;;;2259771;61;20384;-69
2022/11/18 08:31:20;0.00;0.00;0.62;0.00;0.00;0.62;4.63;4.17;;;21.60;25.50;;;;;;2259908;61;20973;-68
2022/11/18 08:34:06;0.00;0.00;0.62;0.00;0.00;0.62;5.40;4.20;;;21.60;25.50;;;;;;2259949;61;20385;-70
2022/11/18 08:36:51;0.00;0.00;0.62;0.00;0.00;0.62;5.07;4.37;;;21.60;25.50;;;;;;2259447;61;20437;-69
2022/11/18 08:39:37;0.00;0.00;0.62;0.00;0.00;0.62;8.43;4.63;;;21.60;25.50;;;;;;2259599;61;20784;-69
2022/11/18 08:42:24;0.00;0.00;0.62;0.00;0.00;0.62;4.83;4.40;;;21.60;25.40;;;;;;2259968;61;20365;-66
2022/11/18 08:45:09;0.00;0.00;0.62;0.00;0.00;0.62;5.47;4.77;;;21.60;25.40;;;;;;2259887;61;20408;-69
2022/11/18 08:47:54;0.00;0.00;0.62;0.00;0.00;0.62;5.87;4.80;;;21.60;25.40;;;;;;2259943;61;20377;-67
2022/11/18 08:50:39;0.00;0.00;0.62;0.00;0.00;0.62;4.83;4.37;;;21.60;25.40;;;;;;2259876;61;20849;-68
2022/11/18 08:53:24;0.00;0.00;0.62;0.00;0.00;0.62;5.77;5.00;;;21.60;25.40;;;;;;2259816;61;20376;-71
2022/11/18 08:56:15;0.00;0.00;0.62;0.00;0.00;0.62;5.30;4.30;;;21.60;25.40;;;;;;2260069;61;20407;-68
2022/11/18 08:59:00;0.00;0.00;0.62;0.00;0.00;0.62;6.37;5.03;;;21.60;25.40;;;;;;2260007;61;20790;-65
2022/11/18 09:01:45;0.00;0.00;0.62;0.00;0.00;0.62;5.60;5.00;;;21.60;25.40;;;;;;2259758;61;20356;-69
2022/11/18 09:04:29;0.00;0.00;0.62;0.00;0.00;0.62;5.80;4.53;;;21.60;25.50;;;;;;2259775;61;20361;-72
2022/11/18 09:07:14;0.00;0.00;0.62;0.00;0.00;0.62;6.60;5.20;;;21.70;25.60;;;;;;2259823;61;20364;-72
2022/11/18 09:09:58;0.00;0.00;0.62;0.00;0.00;0.62;5.47;4.87;;;21.60;25.60;;;;;;2259506;61;20444;-70
2022/11/18 09:12:45;0.00;0.00;0.62;0.00;0.00;0.62;5.90;4.77;;;21.70;25.70;;;;;;2259619;61;20365;-73
2022/11/18 09:15:30;0.00;0.00;0.62;0.00;0.00;0.62;6.30;4.60;;;21.70;25.70;;;;;;2259896;61;20419;-68
2022/11/18 09:18:15;0.00;0.00;0.62;0.00;0.00;0.62;4.77;4.27;;;21.60;25.60;;;;;;2259567;61;20429;-69
2022/11/18 09:21:02;0.00;0.00;0.62;0.00;0.00;0.62;5.93;4.90;;;21.70;25.80;;;;;;2259701;61;20357;-71
2022/11/18 09:23:47;0.00;0.00;0.62;0.00;0.00;0.62;5.00;4.50;;;21.60;25.70;;;;;;2259956;61;20365;-72
2022/11/18 09:26:31;0.00;0.00;0.62;0.00;0.00;0.62;5.20;4.33;;;21.70;25.80;;;;;;2260751;61;20348;-70
2022/11/18 09:29:17;0.00;0.00;0.62;0.00;0.00;0.62;5.47;4.90;;;21.70;25.80;;;;;;2260915;61;20765;-69
2022/11/18 09:32:02;0.00;0.00;0.62;0.00;0.00;0.62;5.10;4.40;;;21.70;25.80;;;;;;2260356;61;20404;-69
2022/11/18 09:34:47;0.00;0.00;0.62;0.00;0.00;0.62;4.80;4.30;;;21.70;25.70;;;;;;2260664;61;20360;-69
2022/11/18 09:37:33;0.00;0.00;0.62;0.00;0.00;0.62;5.90;4.40;;;21.70;25.70;;;;;;2260848;61;20384;-71
2022/11/18 09:40:18;0.00;0.00;0.62;0.00;0.00;0.62;5.20;4.53;;;21.70;25.70;;;;;;2260840;61;20388;-70
2022/11/18 09:43:16;0.00;0.00;0.62;0.00;0.00;0.62;6.00;4.70;;;21.70;25.70;;;;;;2261003;61;20920;-69
2022/11/18 09:46:18;0.00;0.00;0.62;0.00;0.00;0.62;6.13;4.47;;;21.70;25.60;;;;;;2260720;61;20356;-70
2022/11/18 09:49:13;0.00;0.00;0.62;0.00;0.00;0.62;5.90;4.23;;;21.70;25.60;;;;;;2260832;61;20414;-68
2022/11/18 09:52:04;0.00;0.00;0.62;0.00;0.00;0.62;5.40;4.20;;;21.70;26.10;;;;;;2260594;61;20366;-70
2022/11/18 09:54:49;0.00;0.00;0.62;0.00;0.00;0.62;4.40;3.97;;;21.80;25.70;;;;;;2260830;61;20365;-68
2022/11/18 09:57:38;0.00;0.00;0.62;0.00;0.00;0.62;4.77;4.17;;;21.80;25.60;;;;;;2260300;61;20360;-70
2022/11/18 10:00:27;0.00;0.00;0.62;0.00;0.00;0.62;4.57;3.90;;;21.70;25.50;;;;;;2260414;61;20357;-70
2022/11/18 10:03:21;0.00;0.00;0.62;0.00;0.00;0.62;5.47;4.13;;;21.80;25.60;;;;;;2260983;61;20375;-68
2022/11/18 10:06:21;0.00;0.00;0.62;0.00;0.00;0.62;4.83;3.67;;;21.80;25.50;;;;;;2261087;61;20407;-70
2022/11/18 10:09:24;0.00;0.00;0.62;0.00;0.00;0.62;5.23;4.13;;;21.70;25.50;;;;;;2260670;61;20951;-68
2022/11/18 10:12:21;0.00;0.00;0.62;0.00;0.00;0.62;4.50;3.77;;;21.70;25.50;;;;;;2260626;61;20368;-70
2022/11/18 10:15:22;0.00;0.00;0.62;0.00;0.00;0.62;5.37;4.13;;;21.80;25.50;;;;;;2260696;61;20365;-69
2022/11/18 10:18:23;0.00;0.00;0.62;0.00;0.00;0.62;5.00;3.97;;;21.70;25.50;;;;;;2260638;61;20408;-70
2022/11/18 10:21:18;0.00;0.00;0.62;0.00;0.00;0.62;4.03;3.63;;;21.80;25.50;;;;;;2260825;61;20463;-69
2022/11/18 10:24:12;0.00;0.00;0.62;0.00;0.00;0.62;4.03;3.40;;;21.80;25.50;;;;;;2260850;61;20381;-68
2022/11/18 10:26:59;0.00;0.00;0.62;0.00;0.00;0.62;3.87;3.10;;;21.70;26.00;;;;;;2260480;61;20377;-69
2022/11/18 10:29:51;0.00;0.00;0.62;0.00;0.00;0.62;4.33;3.50;;;21.80;25.50;;;;;;2260157;61;20997;-69
2022/11/18 10:32:52;0.00;0.00;0.62;0.00;0.00;0.62;4.53;3.70;;;21.80;25.50;;;;;;2260758;61;20800;-68
2022/11/18 10:35:38;0.00;0.00;0.62;0.00;0.00;0.62;4.17;3.77;;;21.80;25.50;;;;;;2260883;61;20380;-70
2022/11/18 10:38:23;0.00;0.00;0.62;0.00;0.00;0.62;4.23;3.57;;;21.70;25.40;;;;;;2260769;61;20527;-69
2022/11/18 10:41:12;0.00;0.00;0.62;0.00;0.00;0.62;3.57;3.27;;;21.80;25.40;;;;;;2260699;61;20408;-70
2022/11/18 10:43:57;0.00;0.00;0.62;0.00;0.00;0.62;4.30;3.67;;;21.80;25.40;;;;;;2260218;61;20393;-69
2022/11/18 10:46:42;0.00;0.00;0.62;0.00;0.00;0.62;3.93;3.53;;;21.80;25.40;;;;;;2260727;61;20816;-68
2022/11/18 10:49:26;0.00;0.00;0.62;0.00;0.00;0.62;3.83;3.30;;;21.80;25.40;;;;;;2260504;61;20787;-70
2022/11/18 10:52:13;0.00;0.00;0.62;0.00;0.00;0.62;3.80;2.90;;;21.80;25.40;;;;;;2260721;61;20388;-69
2022/11/18 10:55:21;0.00;0.00;0.62;0.00;0.00;0.62;4.00;3.60;;;21.80;25.40;;;;;;2260679;61;20353;-70
2022/11/18 10:58:12;0.00;0.00;0.62;0.00;0.00;0.62;4.37;3.60;;;21.80;25.40;;;;;;2260538;61;20389;-69
2022/11/18 11:01:05;0.00;0.00;0.62;0.00;0.00;0.62;3.10;2.77;;;21.80;25.40;;;;;;2260562;61;20774;-70
2022/11/18 11:03:59;0.00;0.00;0.62;0.00;0.00;0.62;3.73;3.33;;;21.80;25.40;;;;;;2260517;61;20364;-68
2022/11/18 11:06:44;0.00;0.00;0.62;0.00;0.00;0.62;3.70;3.03;;;21.70;25.30;;;;;;2260540;61;20443;-70
2022/11/18 11:09:31;0.00;0.00;0.62;0.00;0.00;0.62;3.90;3.27;;;21.70;25.30;;;;;;2260248;61;20408;-68
2022/11/18 11:12:17;0.00;0.00;0.62;0.00;0.00;0.62;3.33;2.90;;;21.70;25.30;;;;;;2260511;61;20758;-70
2022/11/18 11:15:08;0.00;0.00;0.62;0.00;0.00;0.62;3.87;3.43;;;21.80;25.40;;;;;;2260434;61;20482;-68